Time;durP1;ratioP1;P1;durP2;ratioP2;P2;SDS_P1;SDS_P2;PMS_P1;PMS_P2;Temp;Humidity;BMP_temperature;BMP_pressure;BME280_temperature;BME280_humidity;BME280_pressure;Samples;Min_cycle;Max_cycle;Signal;HPM_P1;HPM_P2
2022/02/13 00:01:13;;;;;;;7.65;4.35;;;;;;;7.63;46.12;101171.75;4977783;28;20128;-93
2022/02/13 00:03:38;;;;;;;5.50;3.90;;;;;;;7.09;46.68;101091.91;4977551;28;20488;-94
2022/02/13 00:06:04;;;;;;;8.13;4.75;;;;;;;7.35;46.44;101140.63;4978093;28;20114;-93
2022/02/13 00:08:29;;;;;;;4.88;3.60;;;;;;;7.10;46.88;101104.91;4977880;28;20022;-93
2022/02/13 00:10:55;;;;;;;6.15;4.18;;;;;;;7.20;47.05;101140.03;4977681;28;20061;-93
2022/02/13 00:13:20;;;;;;;9.82;4.28;;;;;;;7.16;47.34;101132.50;4977540;28;20026;-95
2022/02/13 00:15:45;;;;;;;6.90;4.20;;;;;;;7.55;47.73;101197.78;4977516;28;20476;-94
2022/02/13 00:18:11;;;;;;;6.68;4.45;;;;;;;7.48;47.88;101201.00;4977521;28;20076;-93
2022/02/13 00:20:36;;;;;;;6.22;3.63;;;;;;;6.56;48.12;101068.72;4977463;28;20113;-93
2022/02/13 00:23:02;;;;;;;6.57;3.22;;;;;;;6.86;48.08;101099.75;4977561;28;20192;-93
2022/02/13 00:25:28;;;;;;;7.47;4.22;;;;;;;7.20;48.36;101142.66;4977264;28;20061;-94
2022/02/13 00:27:53;;;;;;;6.22;4.10;;;;;;;6.83;48.52;101104.38;4977404;28;20054;-94
2022/02/13 00:30:19;;;;;;;7.53;4.43;;;;;;;7.23;48.63;101173.94;4977323;28;20095;-94
2022/02/13 00:32:45;;;;;;;6.03;3.58;;;;;;;6.56;48.73;101094.97;4977195;28;20046;-93
2022/02/13 00:35:12;;;;;;;9.48;4.63;;;;;;;6.72;49.31;101094.69;4977294;28;20038;-93
2022/02/13 00:37:38;;;;;;;5.55;4.07;;;;;;;7.52;49.44;101224.31;4994722;28;20164;-93
2022/02/13 00:40:05;;;;;;;8.50;4.10;;;;;;;6.59;49.33;101107.88;4994588;28;20033;-93
2022/02/13 00:42:30;;;;;;;7.35;4.93;;;;;;;7.38;49.35;101229.75;4977102;28;20511;-94
2022/02/13 00:44:55;;;;;;;7.70;4.65;;;;;;;6.48;49.36;101059.75;4977132;28;20118;-95
2022/02/13 00:47:21;;;;;;;5.88;4.03;;;;;;;7.08;49.40;101161.97;4977175;28;20030;-94
2022/02/13 00:49:46;;;;;;;5.85;4.10;;;;;;;7.10;49.62;101212.59;4975951;28;20031;-94
2022/02/13 00:52:12;;;;;;;7.85;5.30;;;;;;;7.14;50.27;101202.69;4974709;28;20087;-93
2022/02/13 00:54:38;;;;;;;8.88;5.07;;;;;;;6.88;49.93;101154.75;4975076;28;20041;-94
2022/02/13 00:57:04;;;;;;;6.75;4.82;;;;;;;7.48;50.32;101214.97;4974821;28;20029;-94
2022/02/13 00:59:30;;;;;;;5.82;4.25;;;;;;;7.27;50.00;101195.56;4974817;28;20027;-94
2022/02/13 01:01:55;;;;;;;6.80;4.70;;;;;;;6.86;50.29;101128.63;4974585;28;20089;-94
2022/02/13 01:04:21;;;;;;;6.60;4.60;;;;;;;7.49;50.55;101218.44;4974830;28;20037;-94
2022/02/13 01:06:46;;;;;;;9.48;4.53;;;;;;;6.65;50.89;101101.31;4975422;28;20038;-95
2022/02/13 01:09:12;;;;;;;7.35;4.43;;;;;;;6.64;50.73;101073.41;4976651;28;20034;-94
2022/02/13 01:11:38;;;;;;;10.18;5.28;;;;;;;7.17;50.75;101158.66;4976717;28;20033;-95
2022/02/13 01:14:03;;;;;;;6.93;4.68;;;;;;;6.45;50.85;101041.63;4976818;28;20033;-94
2022/02/13 01:16:29;;;;;;;7.55;5.07;;;;;;;6.84;51.07;101106.91;4976647;28;20061;-93
2022/02/13 01:18:55;;;;;;;8.32;4.85;;;;;;;7.10;51.52;101165.31;4976414;28;20077;-94
2022/02/13 01:21:21;;;;;;;10.48;4.40;;;;;;;7.33;51.45;101188.06;4975379;28;20030;-94
2022/02/13 01:23:47;;;;;;;6.45;4.78;;;;;;;7.37;51.10;101193.06;4976639;28;20519;-95
2022/02/13 01:26:13;;;;;;;10.20;5.13;;;;;;;6.97;52.19;101152.28;4991401;28;20054;-94
2022/02/13 01:28:39;;;;;;;7.10;4.38;;;;;;;6.16;51.87;101052.50;4975584;28;20162;-94
2022/02/13 01:31:06;;;;;;;7.35;4.72;;;;;;;7.26;51.81;101183.38;4976220;28;20053;-95
2022/02/13 01:33:33;;;;;;;9.02;5.00;;;;;;;6.48;51.99;101086.00;4975901;28;20037;-94
2022/02/13 01:35:59;;;;;;;8.90;4.80;;;;;;;7.04;52.49;101167.56;4976377;28;20056;-94
2022/02/13 01:38:25;;;;;;;10.57;5.00;;;;;;;6.97;52.38;101157.53;4976366;28;20415;-94
2022/02/13 01:40:51;;;;;;;11.40;5.63;;;;;;;7.08;52.98;101175.09;4976536;28;20076;-93
2022/02/13 01:43:17;;;;;;;11.50;5.93;;;;;;;7.05;53.08;101190.25;4993612;28;20030;-93
2022/02/13 01:45:42;;;;;;;7.05;4.82;;;;;;;6.53;52.77;101102.25;4993630;28;20034;-94
2022/02/13 01:48:08;;;;;;;7.55;5.13;;;;;;;6.28;53.06;101085.69;4976071;28;20448;-94
2022/02/13 01:50:35;;;;;;;12.80;5.28;;;;;;;6.75;53.39;101141.72;4975937;28;20026;-94
2022/02/13 01:53:00;;;;;;;8.75;5.20;;;;;;;7.03;52.87;101176.41;4975840;28;20026;-94
2022/02/13 01:55:26;;;;;;;8.98;5.35;;;;;;;7.03;52.86;101172.00;4975733;28;20553;-94
2022/02/13 01:57:52;;;;;;;9.68;4.80;;;;;;;6.96;53.76;101179.50;4993172;28;20049;-94
2022/02/13 02:00:18;;;;;;;10.52;6.28;;;;;;;6.81;53.68;101162.25;4992949;28;20510;-93
2022/02/13 02:02:43;;;;;;;10.40;5.10;;;;;;;6.55;53.57;101113.47;4975645;28;20022;-94
2022/02/13 02:05:09;;;;;;;12.55;6.03;;;;;;;6.64;53.96;101136.41;4976013;28;20487;-94
2022/02/13 02:07:34;;;;;;;13.70;6.10;;;;;;;6.10;54.30;101087.03;4986682;28;20045;-94
2022/02/13 02:10:00;;;;;;;11.15;5.75;;;;;;;6.62;54.03;101161.91;5002223;28;20017;-94
2022/02/13 02:12:26;;;;;;;14.68;6.20;;;;;;;5.71;54.30;101031.25;5002243;28;20035;-94
2022/02/13 02:14:52;;;;;;;9.80;6.05;;;;;;;5.44;54.13;101030.59;4991711;28;20030;-94
2022/02/13 02:17:17;;;;;;;9.95;5.60;;;;;;;6.33;54.83;101150.94;4988539;28;20033;-94
2022/02/13 02:19:43;;;;;;;12.27;5.88;;;;;;;5.74;54.65;101044.13;4987546;28;20026;-94
2022/02/13 02:22:09;;;;;;;8.57;5.97;;;;;;;5.75;54.59;101071.16;4979642;28;20034;-94
2022/02/13 02:24:35;;;;;;;11.50;6.45;;;;;;;6.14;54.99;101146.19;4976222;28;20101;-96
2022/02/13 02:27:01;;;;;;;10.05;5.60;;;;;;;6.12;54.89;101121.84;4976351;28;20043;-96
2022/02/13 02:29:27;;;;;;;11.27;6.80;;;;;;;5.95;55.10;101127.47;4976634;28;20026;-96
2022/02/13 02:31:53;;;;;;;13.23;6.53;;;;;;;5.84;55.16;101083.63;4976822;28;20030;-96
2022/02/13 02:34:18;;;;;;;10.32;6.43;;;;;;;5.36;55.27;101017.22;4976546;28;20030;-96
2022/02/13 02:36:44;;;;;;;10.73;6.65;;;;;;;5.55;55.23;101032.44;4977834;28;20105;-96
2022/02/13 02:39:09;;;;;;;12.18;6.00;;;;;;;6.49;55.43;101176.88;4989683;28;20054;-96
2022/02/13 02:41:35;;;;;;;8.18;5.95;;;;;;;6.44;55.15;101179.00;4995882;28;20038;-95
2022/02/13 02:44:00;;;;;;;9.57;6.63;;;;;;;5.87;55.16;101119.25;5005692;28;20057;-96
2022/02/13 02:46:26;;;;;;;9.63;6.60;;;;;;;6.27;55.29;101157.47;5005459;28;20053;-96
2022/02/13 02:48:51;;;;;;;18.17;6.85;;;;;;;6.42;55.29;101181.75;5001304;28;20031;-96
2022/02/13 02:51:17;;;;;;;10.85;6.13;;;;;;;6.40;55.31;101188.88;4997998;28;20090;-96
2022/02/13 02:53:42;;;;;;;15.50;7.70;;;;;;;6.39;55.95;101179.34;5000212;28;20034;-96
2022/02/13 02:56:09;;;;;;;12.88;7.20;;;;;;;6.41;55.31;101195.81;4995203;28;20025;-96
2022/02/13 02:58:35;;;;;;;12.65;8.10;;;;;;;4.83;55.58;100979.88;4978857;28;20030;-96
2022/02/13 03:01:01;;;;;;;14.57;8.50;;;;;;;6.40;55.41;101186.25;4978916;28;20117;-96
2022/02/13 03:03:26;;;;;;;13.82;7.65;;;;;;;5.43;55.86;101042.84;4978651;28;20582;-96
2022/02/13 03:05:52;;;;;;;11.48;7.60;;;;;;;6.40;55.68;101198.53;4978923;28;20026;-96
2022/02/13 03:08:19;;;;;;;13.07;7.32;;;;;;;5.77;55.90;101119.06;4979621;28;20435;-96
2022/02/13 03:10:45;;;;;;;10.70;7.53;;;;;;;6.07;55.77;101138.88;4980201;28;20026;-96
2022/02/13 03:13:14;;;;;;;14.38;8.93;;;;;;;6.05;55.64;101147.69;4980215;28;20022;-96
2022/02/13 03:15:40;;;;;;;14.52;8.20;;;;;;;6.44;55.20;101210.50;4980192;28;20037;-96
2022/02/13 03:18:05;;;;;;;12.48;8.10;;;;;;;6.04;55.76;101138.13;4982353;28;20093;-94
2022/02/13 03:20:31;;;;;;;13.45;8.52;;;;;;;6.09;55.61;101145.66;4980225;28;20156;-96
2022/02/13 03:22:56;;;;;;;13.32;8.43;;;;;;;5.13;55.21;100981.31;4979235;28;20046;-96
2022/02/13 03:25:22;;;;;;;13.85;7.13;;;;;;;6.14;55.50;101150.59;4978205;28;20030;-96
2022/02/13 03:27:47;;;;;;;14.15;7.90;;;;;;;5.04;55.35;100977.56;4977936;28;20057;-96
2022/02/13 03:30:13;;;;;;;14.07;8.10;;;;;;;5.22;55.81;101023.41;4978337;28;20537;-96
2022/02/13 03:32:38;;;;;;;11.27;8.07;;;;;;;5.50;55.63;101064.22;4977932;28;20118;-96
2022/02/13 03:35:04;;;;;;;11.20;6.85;;;;;;;5.94;55.43;101155.44;4977814;28;20049;-96
2022/02/13 03:37:29;;;;;;;10.73;7.27;;;;;;;4.93;55.54;100991.38;4978062;28;20479;-96
2022/02/13 03:39:55;;;;;;;12.15;6.65;;;;;;;5.24;55.80;101084.38;4979929;28;20600;-96
2022/02/13 03:42:20;;;;;;;11.95;6.57;;;;;;;5.56;55.09;101087.34;4979261;28;20034;-96
2022/02/13 03:44:47;;;;;;;10.73;6.53;;;;;;;6.02;55.31;101170.66;4979470;28;20080;-95
2022/02/13 03:47:13;;;;;;;9.65;5.45;;;;;;;5.80;54.71;101134.56;4978902;28;20431;-96
2022/02/13 03:49:39;;;;;;;9.63;5.80;;;;;;;5.86;54.71;101162.13;4979193;28;20050;-96
2022/02/13 03:52:05;;;;;;;11.48;7.03;;;;;;;5.70;54.92;101147.50;4980273;28;20085;-94
2022/02/13 03:54:30;;;;;;;10.52;6.05;;;;;;;5.42;54.79;101104.03;4980010;28;20030;-96
2022/02/13 03:56:56;;;;;;;10.80;6.00;;;;;;;6.10;54.68;101226.00;4979557;28;20030;-96
2022/02/13 03:59:22;;;;;;;9.90;6.32;;;;;;;6.10;54.57;101194.53;4979467;28;20030;-95
2022/02/13 04:01:47;;;;;;;9.57;5.68;;;;;;;6.10;54.41;101205.03;4979577;28;20030;-96
2022/02/13 04:04:12;;;;;;;10.65;5.82;;;;;;;4.69;54.00;100990.47;4979235;28;20495;-96
2022/02/13 04:06:38;;;;;;;9.40;6.10;;;;;;;5.66;54.42;101148.66;4979386;28;20454;-96
2022/02/13 04:09:03;;;;;;;11.00;6.65;;;;;;;5.87;54.22;101166.44;4979588;28;20022;-96
2022/02/13 04:11:31;;;;;;;8.98;7.07;;;;;;;6.07;54.07;101217.53;4979918;28;20038;-96
2022/02/13 04:13:56;;;;;;;10.73;6.93;;;;;;;4.71;53.76;100994.66;4979019;28;20427;-96
2022/02/13 04:16:22;;;;;;;8.50;6.72;;;;;;;4.19;53.80;100918.03;4979607;28;20026;-95
2022/02/13 04:18:49;;;;;;;8.70;6.45;;;;;;;5.52;53.95;101137.47;4979537;28;20030;-96
2022/02/13 04:21:15;;;;;;;10.05;5.85;;;;;;;5.53;54.20;101160.94;4978904;28;20117;-96
2022/02/13 04:23:40;;;;;;;11.43;7.18;;;;;;;4.74;53.70;101057.22;4979090;28;20030;-96
2022/02/13 04:26:06;;;;;;;10.48;7.10;;;;;;;5.06;54.11;101073.34;4978533;28;20037;-96
2022/02/13 04:28:31;;;;;;;11.00;7.05;;;;;;;5.61;54.06;101166.47;4978407;28;20055;-96
2022/02/13 04:30:56;;;;;;;9.63;6.63;;;;;;;4.50;53.78;100993.50;4978497;28;20022;-96
2022/02/13 04:33:22;;;;;;;10.25;6.45;;;;;;;4.79;53.73;101030.75;4978622;28;20487;-96
2022/02/13 04:35:48;;;;;;;11.80;7.15;;;;;;;5.70;53.87;101186.78;4978580;28;20023;-96
2022/02/13 04:38:17;;;;;;;9.80;6.45;;;;;;;5.56;54.16;101171.19;4978442;28;20042;-96
2022/02/13 04:40:43;;;;;;;8.40;6.03;;;;;;;5.76;53.81;101206.50;4978726;28;20026;-96
2022/02/13 04:43:08;;;;;;;11.32;6.55;;;;;;;5.33;53.83;101151.81;4978604;28;20063;-96
2022/02/13 04:45:34;;;;;;;13.57;7.75;;;;;;;5.40;54.24;101166.19;4978232;28;20022;-95
2022/02/13 04:48:00;;;;;;;11.80;7.40;;;;;;;5.19;53.87;101120.47;4978717;28;20027;-96
2022/02/13 04:50:26;;;;;;;11.65;7.57;;;;;;;5.79;53.83;101205.44;4976449;28;20018;-96
2022/02/13 04:52:53;;;;;;;10.50;7.33;;;;;;;5.57;53.97;101180.72;4973647;28;20029;-96
2022/02/13 04:55:19;;;;;;;10.52;6.70;;;;;;;4.50;53.87;100997.88;4976540;28;20077;-96
2022/02/13 04:57:46;;;;;;;9.27;7.40;;;;;;;5.60;54.21;101196.25;4976399;28;20026;-96
2022/02/13 05:00:12;;;;;;;12.73;7.20;;;;;;;5.83;54.23;101225.25;4975486;28;20630;-95
2022/02/13 05:02:38;;;;;;;10.27;7.33;;;;;;;4.96;54.63;101105.50;4976289;28;20088;-95
2022/02/13 05:05:04;;;;;;;12.83;7.00;;;;;;;5.61;54.36;101187.44;4975802;28;20511;-95
2022/02/13 05:07:30;;;;;;;15.18;6.75;;;;;;;5.00;54.54;101080.78;4975955;28;20026;-95
2022/02/13 05:09:55;;;;;;;10.63;7.83;;;;;;;5.16;54.25;101140.78;4975610;28;20041;-95
2022/02/13 05:12:22;;;;;;;11.60;7.80;;;;;;;5.23;54.46;101144.72;4975966;28;20089;-95
2022/02/13 05:14:48;;;;;;;13.37;7.53;;;;;;;5.52;54.68;101164.50;4975626;28;20041;-95
2022/02/13 05:17:14;;;;;;;14.27;8.47;;;;;;;4.45;54.87;101043.47;4975822;28;20033;-96
2022/02/13 05:19:39;;;;;;;14.17;8.23;;;;;;;4.96;54.46;101114.19;4977386;28;20423;-95
2022/02/13 05:22:05;;;;;;;16.13;8.93;;;;;;;5.18;54.50;101142.38;4982152;28;20406;-94
2022/02/13 05:24:35;;;;;;;13.40;8.40;;;;;;;5.46;54.61;101191.13;4981746;28;20029;-91
2022/02/13 05:27:02;;;;;;;13.77;9.40;;;;;;;5.30;54.48;101162.50;4976406;28;20587;-94
2022/02/13 05:29:27;;;;;;;16.30;9.97;;;;;;;5.80;54.68;101221.06;4976664;28;20030;-93
2022/02/13 05:31:52;;;;;;;14.73;9.07;;;;;;;5.93;54.74;101234.19;4977031;28;20104;-94
2022/02/13 05:34:18;;;;;;;12.43;7.90;;;;;;;5.16;54.50;101115.44;4975690;28;20496;-94
2022/02/13 05:36:44;;;;;;;11.60;7.60;;;;;;;5.39;54.52;101146.16;4976575;28;20017;-94
2022/02/13 05:39:09;;;;;;;11.53;7.60;;;;;;;5.30;54.17;101131.09;4976408;28;20026;-94
2022/02/13 05:41:35;;;;;;;14.80;8.77;;;;;;;5.19;54.47;101120.47;4976416;28;20034;-94
2022/02/13 05:44:00;;;;;;;12.52;8.05;;;;;;;5.19;54.58;101124.88;4976793;28;20090;-94
2022/02/13 05:46:25;;;;;;;14.77;8.70;;;;;;;5.49;54.39;101171.72;4976316;28;20491;-94
2022/02/13 05:48:52;;;;;;;14.85;10.00;;;;;;;5.88;54.15;101223.16;4976330;28;20030;-94
2022/02/13 05:51:17;;;;;;;14.20;9.33;;;;;;;5.74;54.19;101192.66;4976465;28;20113;-93
2022/02/13 05:53:43;;;;;;;12.07;8.23;;;;;;;5.43;54.05;101136.31;4976512;28;20062;-93
2022/02/13 05:56:09;;;;;;;12.17;8.73;;;;;;;6.22;53.86;101240.03;4976193;28;20101;-95
2022/02/13 05:58:39;;;;;;;11.23;7.70;;;;;;;5.90;54.02;101208.19;4976556;28;20053;-94
2022/02/13 06:01:04;;;;;;;13.03;7.73;;;;;;;5.97;54.23;101214.72;4975831;28;20486;-92
2022/02/13 06:03:30;;;;;;;11.60;8.20;;;;;;;5.91;54.20;101188.91;4975749;28;20026;-94
2022/02/13 06:05:55;;;;;;;15.20;8.90;;;;;;;5.53;54.24;101136.50;4975894;28;20030;-94
2022/02/13 06:08:21;;;;;;;12.37;8.57;;;;;;;5.92;54.22;101208.91;4976158;28;20419;-94
2022/02/13 06:10:46;;;;;;;13.97;9.37;;;;;;;5.84;54.04;101182.38;4975908;28;20503;-93
2022/02/13 06:13:12;;;;;;;14.05;9.35;;;;;;;5.98;54.11;101200.66;4976016;28;20053;-94
2022/02/13 06:15:37;;;;;;;12.03;8.57;;;;;;;6.10;53.62;101193.72;4975801;28;20058;-93
2022/02/13 06:18:03;;;;;;;13.45;8.07;;;;;;;5.84;53.80;101175.34;4975710;28;20026;-94
2022/02/13 06:20:29;;;;;;;10.23;8.00;;;;;;;5.87;54.02;101171.69;4975455;28;20058;-94
2022/02/13 06:22:54;;;;;;;12.90;7.80;;;;;;;5.63;53.92;101133.16;4975575;28;20517;-94
2022/02/13 06:25:20;;;;;;;13.85;8.88;;;;;;;5.97;53.67;101175.38;4977263;28;20041;-96
2022/02/13 06:27:45;;;;;;;11.85;7.80;;;;;;;5.00;53.89;101010.13;4976730;28;20069;-96
2022/02/13 06:30:11;;;;;;;11.18;8.07;;;;;;;6.16;53.73;101209.84;4976938;28;20177;-96
2022/02/13 06:32:36;;;;;;;10.35;7.35;;;;;;;6.50;53.69;101250.25;4976835;28;20065;-96
2022/02/13 06:35:02;;;;;;;10.27;7.43;;;;;;;6.50;53.37;101239.75;4977157;28;20030;-95
2022/02/13 06:37:29;;;;;;;9.95;7.75;;;;;;;6.20;53.88;101200.81;4977301;28;20022;-96
2022/02/13 06:39:54;;;;;;;12.60;7.22;;;;;;;6.00;53.85;101172.53;4977746;28;20058;-96
2022/02/13 06:42:20;;;;;;;9.75;7.32;;;;;;;4.95;53.84;101020.06;4977462;28;20061;-95
2022/02/13 06:44:45;;;;;;;9.77;6.88;;;;;;;6.42;53.57;101249.13;4999366;28;20068;-96
2022/02/13 06:47:11;;;;;;;11.65;8.00;;;;;;;5.97;53.75;101172.75;5001752;28;20082;-95
2022/02/13 06:49:36;;;;;;;11.18;8.30;;;;;;;5.94;54.23;101149.34;4993205;28;20049;-96
2022/02/13 06:52:02;;;;;;;14.20;8.60;;;;;;;5.90;53.88;101137.41;4971682;28;20036;-96
2022/02/13 06:54:29;;;;;;;13.37;8.13;;;;;;;6.24;54.18;101191.78;4975058;28;20030;-96
2022/02/13 06:56:55;;;;;;;12.20;8.25;;;;;;;5.87;53.57;101169.06;4974437;28;20022;-95
2022/02/13 06:59:22;;;;;;;19.23;10.20;;;;;;;5.48;53.70;101057.41;4974657;28;20023;-96
2022/02/13 07:01:47;;;;;;;20.57;10.20;;;;;;;5.56;53.64;101061.16;4974511;28;20031;-96
2022/02/13 07:04:13;;;;;;;14.35;9.25;;;;;;;6.09;54.00;101152.69;4974515;28;20053;-96
2022/02/13 07:06:38;;;;;;;15.93;9.98;;;;;;;6.51;54.07;101230.94;4974727;28;20058;-96
2022/02/13 07:09:04;;;;;;;15.40;9.60;;;;;;;6.43;53.60;101216.69;4974697;28;20462;-96
2022/02/13 07:11:30;;;;;;;13.93;9.32;;;;;;;5.52;53.60;101082.44;4976492;28;20053;-96
2022/02/13 07:13:55;;;;;;;15.43;9.80;;;;;;;5.77;53.52;101108.59;4976850;28;20033;-96
2022/02/13 07:16:21;;;;;;;14.75;9.77;;;;;;;6.69;53.50;101258.50;4978301;28;20045;-96
2022/02/13 07:18:46;;;;;;;13.53;9.17;;;;;;;5.45;53.93;101039.28;5002921;28;20021;-94
2022/02/13 07:21:11;;;;;;;16.02;9.95;;;;;;;6.13;53.90;101148.91;5001085;28;20041;-96
2022/02/13 07:23:37;;;;;;;16.23;9.32;;;;;;;5.95;53.51;101098.63;5002199;28;20006;-93
2022/02/13 07:26:03;;;;;;;14.73;9.50;;;;;;;6.85;53.17;101224.09;4989939;28;20503;-94
2022/02/13 07:31:12;;;;;;;13.02;7.53;;;;;;;6.06;53.76;101111.81;4997317;28;20096;-93
2022/02/13 07:33:37;;;;;;;13.00;7.55;;;;;;;6.73;53.92;101213.66;4977947;28;20030;-94
2022/02/13 07:36:03;;;;;;;11.55;7.30;;;;;;;6.08;53.72;101114.31;4976582;28;20024;-94
2022/02/13 07:38:28;;;;;;;11.80;8.13;;;;;;;6.07;54.13;101113.47;4976299;28;20577;-94
2022/02/13 07:40:54;;;;;;;11.45;7.88;;;;;;;6.46;54.14;101184.97;4975952;28;20065;-93
2022/02/13 07:43:19;;;;;;;10.63;7.90;;;;;;;6.76;54.19;101202.94;4976253;28;20030;-93
2022/02/13 07:45:45;;;;;;;11.07;8.52;;;;;;;6.20;53.86;101122.13;4976079;28;20106;-94
2022/02/13 07:48:11;;;;;;;15.23;8.95;;;;;;;6.92;53.78;101219.22;4977141;28;20483;-94
2022/02/13 07:50:37;;;;;;;14.18;8.63;;;;;;;6.20;53.96;101116.06;4978072;28;20018;-94
2022/02/13 07:53:02;;;;;;;9.40;7.85;;;;;;;6.25;53.84;101112.16;4995429;28;20033;-93
2022/02/13 07:55:29;;;;;;;11.20;8.25;;;;;;;6.61;53.59;101163.69;4978135;28;20034;-94
2022/02/13 07:57:55;;;;;;;16.17;8.77;;;;;;;6.21;53.75;101094.13;4978027;28;20059;-94
2022/02/13 08:00:20;;;;;;;13.20;8.13;;;;;;;6.90;53.39;101208.00;4977917;28;20112;-93
2022/02/13 08:02:46;;;;;;;15.25;7.70;;;;;;;6.16;53.34;101067.41;4977806;28;20479;-94
2022/02/13 08:05:11;;;;;;;15.50;8.50;;;;;;;6.56;53.57;101115.13;4977798;28;20066;-93
2022/02/13 08:07:45;;;;;;;11.35;7.03;;;;;;;7.21;53.17;101214.41;4977895;28;20125;-93
2022/02/13 08:10:10;;;;;;;11.77;7.07;;;;;;;7.22;53.14;101205.59;4978130;28;20511;-93
2022/02/13 08:12:36;;;;;;;10.43;6.55;;;;;;;6.67;52.95;101125.66;4977543;28;20030;-93
2022/02/13 08:15:01;;;;;;;12.65;8.45;;;;;;;6.88;53.07;101131.97;4977542;28;20036;-94
2022/02/13 08:17:27;;;;;;;12.70;7.05;;;;;;;7.18;53.02;101186.59;4977892;28;20451;-92
2022/02/13 08:19:52;;;;;;;14.88;8.98;;;;;;;6.22;52.98;101040.72;4977836;28;20027;-94
2022/02/13 08:22:17;;;;;;;13.05;7.47;;;;;;;7.15;52.39;101167.59;4977707;28;20026;-93
2022/02/13 08:24:43;;;;;;;14.52;8.00;;;;;;;6.77;52.67;101112.72;4995979;28;20552;-96
2022/02/13 08:27:08;;;;;;;13.50;8.60;;;;;;;7.22;52.99;101182.78;4978823;28;20039;-96
2022/02/13 08:29:34;;;;;;;11.00;8.10;;;;;;;6.51;52.75;101067.41;4978874;28;20109;-96
2022/02/13 08:31:59;;;;;;;13.98;8.02;;;;;;;7.38;53.04;101207.88;4978580;28;20034;-96
2022/02/13 08:34:25;;;;;;;11.38;8.55;;;;;;;7.28;52.84;101174.44;4977181;28;20026;-96
2022/02/13 08:36:50;;;;;;;12.40;7.85;;;;;;;7.43;52.84;101174.22;4978270;28;20053;-96
2022/02/13 08:39:16;;;;;;;12.15;7.53;;;;;;;7.58;52.82;101202.81;4978115;28;20034;-96
2022/02/13 08:41:41;;;;;;;11.27;7.18;;;;;;;7.31;52.84;101183.88;4978412;28;20114;-96
2022/02/13 08:44:07;;;;;;;15.05;9.02;;;;;;;6.84;52.54;101088.53;4978045;28;20030;-96
2022/02/13 08:46:34;;;;;;;16.05;8.80;;;;;;;7.48;52.43;101180.81;4977906;28;20034;-96
2022/02/13 08:49:00;;;;;;;13.82;9.18;;;;;;;7.42;52.68;101151.50;4977889;28;20096;-96
2022/02/13 08:51:26;;;;;;;13.65;8.50;;;;;;;7.86;52.24;101200.66;4978262;28;20507;-95
2022/02/13 08:53:52;;;;;;;14.40;7.97;;;;;;;7.79;52.24;101191.56;4975587;28;20061;-96
2022/02/13 08:56:17;;;;;;;15.25;8.50;;;;;;;7.49;52.00;101137.81;4975846;28;20109;-95
2022/02/13 08:58:42;;;;;;;14.35;9.38;;;;;;;7.75;52.06;101188.34;4975362;28;20117;-96
2022/02/13 09:01:09;;;;;;;13.63;7.95;;;;;;;7.34;51.95;101133.72;4975590;28;20422;-95
2022/02/13 09:03:34;;;;;;;12.10;7.85;;;;;;;7.54;52.03;101161.09;4975541;28;20045;-95
2022/02/13 09:06:00;;;;;;;17.23;8.27;;;;;;;7.18;52.18;101099.06;4975389;28;20058;-95
2022/02/13 09:08:25;;;;;;;13.85;7.68;;;;;;;7.90;52.29;101215.25;4975699;28;20034;-96
2022/02/13 09:10:51;;;;;;;19.25;9.70;;;;;;;7.27;51.89;101086.06;4975618;28;20029;-96
2022/02/13 09:13:16;;;;;;;15.10;9.75;;;;;;;7.40;51.48;101106.13;4975505;28;20022;-95
2022/02/13 09:15:42;;;;;;;11.45;8.00;;;;;;;7.75;51.56;101150.72;4975187;28;20502;-96
2022/02/13 09:18:11;;;;;;;12.18;7.40;;;;;;;7.17;51.37;101031.72;4974939;28;20518;-96
2022/02/13 09:20:38;;;;;;;11.23;7.18;;;;;;;7.58;51.34;101095.03;4975319;28;20427;-95
2022/02/13 09:23:03;;;;;;;15.23;8.98;;;;;;;7.46;51.36;101056.59;4975284;28;20088;-95
2022/02/13 09:25:29;;;;;;;13.20;7.55;;;;;;;8.16;51.43;101157.94;4975626;28;20121;-95
2022/02/13 09:27:54;;;;;;;9.52;7.13;;;;;;;7.93;51.44;101099.28;4976026;28;20266;-95
2022/02/13 09:30:19;;;;;;;12.40;7.97;;;;;;;8.03;50.95;101073.06;4976967;28;20113;-95
2022/02/13 09:32:45;;;;;;;13.05;7.80;;;;;;;7.63;50.54;101000.88;4976921;28;20056;-94
2022/02/13 09:35:11;;;;;;;13.50;7.25;;;;;;;8.53;50.10;101108.47;4976452;28;20049;-95
2022/02/13 09:37:37;;;;;;;10.60;7.88;;;;;;;8.77;50.09;101151.19;4977407;28;20030;-96
2022/02/13 09:40:03;;;;;;;11.73;7.32;;;;;;;8.37;50.26;101058.06;4976953;28;20161;-95
2022/02/13 09:42:29;;;;;;;12.98;8.27;;;;;;;8.37;49.83;101065.97;4976687;28;20030;-95
2022/02/13 09:44:54;;;;;;;15.32;8.43;;;;;;;8.54;50.02;101113.63;4976803;28;20041;-95
2022/02/13 09:47:20;;;;;;;10.63;7.03;;;;;;;8.37;49.54;101048.38;4976298;28;20022;-94
2022/02/13 09:49:46;;;;;;;16.75;7.90;;;;;;;8.28;49.74;101005.19;4976625;28;20064;-96
2022/02/13 09:52:13;;;;;;;9.85;6.88;;;;;;;8.87;49.37;101094.16;4976784;28;20419;-94
2022/02/13 09:54:39;;;;;;;11.25;7.07;;;;;;;8.35;49.22;101049.47;4975754;28;20129;-96
2022/02/13 09:59:59;;;;;;;11.30;7.32;;;;;;;8.50;49.30;101042.91;4994526;28;20060;-96
2022/02/13 10:02:35;;;;;;;11.52;7.65;;;;;;;9.13;48.83;101115.69;4994328;28;20081;-95
2022/02/13 10:05:06;;;;;;;10.65;7.40;;;;;;;8.18;48.69;100961.38;4976819;28;20053;-95
2022/02/13 10:07:33;;;;;;;9.57;6.83;;;;;;;9.17;49.00;101105.72;4976621;28;20108;-96
2022/02/13 10:10:00;;;;;;;11.50;7.30;;;;;;;9.19;48.52;101101.16;4976790;28;20475;-95
2022/02/13 10:12:39;;;;;;;14.02;7.95;;;;;;;9.18;48.67;101088.97;4976404;28;20041;-96
2022/02/13 10:15:20;;;;;;;12.88;8.38;;;;;;;9.14;48.67;101091.03;4976239;28;20026;-95
2022/02/13 10:18:02;;;;;;;12.68;7.40;;;;;;;8.86;47.95;101057.41;4976363;28;20092;-95
2022/02/13 10:20:39;;;;;;;9.27;6.15;;;;;;;8.78;48.41;101033.53;4975917;28;20262;-95
2022/02/13 10:23:10;;;;;;;7.60;5.18;;;;;;;8.94;48.52;101062.06;4975879;28;20085;-95
2022/02/13 10:25:36;;;;;;;9.05;5.07;;;;;;;9.14;47.81;101074.38;4975977;28;20030;-95
2022/02/13 10:28:11;;;;;;;9.45;5.75;;;;;;;8.64;47.89;100978.56;4975459;28;20054;-96
2022/02/13 10:30:45;;;;;;;14.00;6.25;;;;;;;8.99;47.92;101005.38;4975629;28;20120;-95
2022/02/13 10:33:22;;;;;;;10.82;6.60;;;;;;;8.85;47.17;100968.84;4975726;28;20034;-96
2022/02/13 10:36:04;;;;;;;11.00;6.00;;;;;;;9.36;47.08;101034.66;4993145;28;20026;-95
2022/02/13 10:38:36;;;;;;;9.07;5.63;;;;;;;9.11;47.09;101040.38;4993083;28;20034;-95
2022/02/13 10:41:27;;;;;;;9.82;5.15;;;;;;;9.21;47.28;101018.38;4976015;28;20073;-95
2022/02/13 10:43:58;;;;;;;9.57;5.03;;;;;;;9.20;46.98;101042.22;4975972;28;20036;-95
2022/02/13 10:46:28;;;;;;;8.70;5.20;;;;;;;8.89;47.43;100986.88;4975986;28;20282;-95
2022/02/13 10:48:53;;;;;;;12.23;7.00;;;;;;;8.93;47.52;100978.75;4975788;28;20057;-96
2022/02/13 10:51:21;;;;;;;11.95;6.60;;;;;;;9.05;47.78;100988.22;4975799;28;20026;-96
2022/02/13 10:53:46;;;;;;;9.07;5.85;;;;;;;8.54;47.64;100907.44;4988992;28;20049;-96
2022/02/13 10:56:12;;;;;;;8.30;4.85;;;;;;;8.59;47.36;100910.53;4991081;28;20411;-95
2022/02/13 10:58:37;;;;;;;11.95;4.95;;;;;;;9.05;47.53;100967.16;4975759;28;20034;-95
2022/02/13 11:01:05;;;;;;;11.38;5.53;;;;;;;9.03;47.04;100955.91;4977745;28;20073;-95
2022/02/13 11:03:32;;;;;;;5.07;3.60;;;;;;;9.21;47.16;100994.66;4977530;28;20038;-94
2022/02/13 11:06:06;;;;;;;11.77;5.75;;;;;;;8.90;47.09;100949.03;4995038;28;20785;-94
2022/02/13 11:08:41;;;;;;;11.05;6.47;;;;;;;8.53;47.32;100877.66;4977791;28;20112;-94
2022/02/13 11:11:07;;;;;;;11.25;6.78;;;;;;;8.81;46.87;100906.88;4978185;28;20447;-95
2022/02/13 11:13:34;;;;;;;10.32;6.05;;;;;;;9.53;46.58;100999.72;4979300;28;20026;-95
2022/02/13 11:16:00;;;;;;;8.32;6.00;;;;;;;8.90;46.60;100874.47;4979326;28;20026;-95
2022/02/13 11:18:27;;;;;;;10.32;5.75;;;;;;;9.32;45.82;100909.38;4998782;28;20073;-95
2022/02/13 11:20:55;;;;;;;14.40;6.35;;;;;;;9.76;45.94;100981.06;4998571;28;20128;-94
2022/02/13 11:23:32;;;;;;;9.75;4.97;;;;;;;9.53;45.93;100975.19;4989773;28;20029;-92
2022/02/13 11:26:06;;;;;;;7.53;5.40;;;;;;;9.55;45.93;100970.59;5020441;28;20029;-91
2022/02/13 11:28:41;;;;;;;12.65;7.63;;;;;;;9.57;45.53;100968.66;5004378;28;20069;-93